createdAt,value
2023-01-11T00:00:31.050Z,97.47
2023-01-11T00:01:35.245Z,97.11
2023-01-11T00:02:39.719Z,97.66
2023-01-11T00:03:44.371Z,97.56
2023-01-11T00:04:48.151Z,97.25
2023-01-11T00:05:57.712Z,97.56
2023-01-11T00:07:01.387Z,97.95
2023-01-11T00:08:06.405Z,97.82
2023-01-11T00:09:10.198Z,97.91
2023-01-11T00:10:13.897Z,97.80
2023-01-11T00:11:21.651Z,98.19
2023-01-11T00:12:25.547Z,98.38
2023-01-11T00:13:31.986Z,98.36
2023-01-11T00:14:35.795Z,98.49
2023-01-11T00:15:40.537Z,98.38
2023-01-11T00:16:46.603Z,98.15
2023-01-11T00:17:50.797Z,98.12
2023-01-11T00:18:54.608Z,98.20
2023-01-11T00:19:58.764Z,98.52
2023-01-11T00:21:05.748Z,98.55
2023-01-11T00:22:09.515Z,98.46
2023-01-11T00:23:13.773Z,98.70
2023-01-11T00:24:17.566Z,98.53
2023-01-11T00:25:21.356Z,98.61
2023-01-11T00:26:25.037Z,98.55
2023-01-11T00:27:28.775Z,98.62
2023-01-11T00:28:32.926Z,98.71
2023-01-11T00:29:36.613Z,98.56
2023-01-11T00:30:40.180Z,98.50
2023-01-11T00:31:43.768Z,98.54
2023-01-11T00:32:48.050Z,98.49
2023-01-11T00:33:51.856Z,98.41
2023-01-11T00:34:55.978Z,98.48
2023-01-11T00:35:59.992Z,98.18
2023-01-11T00:37:04.764Z,98.38
2023-01-11T00:38:08.666Z,98.95
2023-01-11T00:39:12.747Z,98.53
2023-01-11T00:40:16.364Z,98.79
2023-01-11T00:41:41.892Z,98.29
2023-01-11T00:43:04.400Z,98.28
2023-01-11T00:44:30.143Z,97.99
2023-01-11T00:45:53.517Z,98.01
2023-01-11T00:47:17.303Z,97.49
2023-01-11T00:48:23.500Z,98.11
2023-01-11T00:49:27.764Z,98.19
2023-01-11T00:50:35.441Z,98.27
2023-01-11T00:51:38.861Z,98.15
2023-01-11T00:52:42.726Z,97.86
2023-01-11T00:53:48.501Z,97.78
2023-01-11T00:54:52.662Z,97.54
2023-01-11T00:55:56.811Z,97.50
2023-01-11T00:57:00.591Z,97.42
2023-01-11T00:58:05.068Z,97.17
2023-01-11T00:59:09.215Z,97.52
2023-01-11T01:00:14.197Z,97.39
2023-01-11T01:01:18.093Z,97.33
2023-01-11T01:02:22.762Z,97.32
2023-01-11T01:03:26.551Z,97.13
2023-01-11T01:04:30.326Z,97.49
2023-01-11T01:05:37.183Z,97.10
2023-01-11T01:06:40.987Z,97.11
2023-01-11T01:07:46.133Z,97.14
2023-01-11T01:08:49.569Z,97.36
2023-01-11T01:09:53.320Z,97.22
2023-01-11T01:10:56.999Z,97.46
2023-01-11T01:12:02.495Z,97.25
2023-01-11T01:13:24.610Z,97.28
2023-01-11T01:14:30.114Z,96.86
2023-01-11T01:15:35.803Z,97.31
2023-01-11T01:16:39.437Z,97.22
2023-01-11T01:17:43.618Z,97.31
2023-01-11T01:18:47.017Z,96.93
2023-01-11T01:19:54.837Z,97.38
2023-01-11T01:21:01.761Z,97.52
2023-01-11T01:22:14.776Z,97.71
2023-01-11T01:23:18.446Z,97.34
2023-01-11T01:24:22.104Z,97.14
2023-01-11T01:25:25.862Z,97.50
2023-01-11T01:26:29.859Z,97.18
2023-01-11T01:27:34.374Z,97.27
2023-01-11T01:28:38.676Z,97.48
2023-01-11T01:29:42.181Z,97.62
2023-01-11T01:30:51.643Z,97.46
2023-01-11T01:31:55.260Z,97.77
2023-01-11T01:32:58.729Z,97.84
2023-01-11T01:34:06.883Z,97.38
2023-01-11T01:35:16.737Z,97.97
2023-01-11T01:36:22.989Z,97.91
2023-01-11T01:37:27.983Z,97.75
2023-01-11T01:38:32.381Z,97.72
2023-01-11T01:39:36.170Z,97.67
2023-01-11T01:40:52.462Z,97.89
2023-01-11T01:41:56.611Z,98.16
2023-01-11T01:43:00.398Z,97.82
2023-01-11T01:44:57.278Z,97.75
2023-01-11T01:46:06.427Z,97.86
2023-01-11T01:47:16.596Z,97.82
2023-01-11T01:48:25.481Z,97.94
2023-01-11T01:49:34.063Z,98.14
2023-01-11T01:50:51.284Z,97.83
2023-01-11T01:51:59.504Z,97.97
2023-01-11T01:53:37.336Z,97.73
2023-01-11T01:54:47.371Z,97.68
2023-01-11T01:55:58.096Z,97.68
2023-01-11T01:57:26.075Z,97.43
2023-01-11T01:58:46.310Z,97.63
2023-01-11T01:59:54.158Z,97.51
2023-01-11T02:01:23.799Z,97.53
2023-01-11T02:02:27.707Z,97.50
2023-01-11T02:03:33.057Z,97.34
2023-01-11T02:04:48.726Z,97.78
2023-01-11T02:05:56.759Z,97.41
2023-01-11T02:07:18.187Z,97.55
2023-01-11T02:08:37.953Z,97.36
2023-01-11T02:10:02.270Z,97.45
2023-01-11T02:11:27.822Z,97.61
2023-01-11T02:12:40.101Z,97.60
2023-01-11T02:13:46.635Z,97.43
2023-01-11T02:14:54.665Z,97.67
2023-01-11T02:16:13.263Z,97.66
2023-01-11T02:17:20.482Z,97.64
2023-01-11T02:18:24.839Z,97.19
2023-01-11T02:20:01.994Z,97.40
2023-01-11T02:21:59.844Z,97.45
2023-01-11T02:23:33.813Z,97.36
2023-01-11T02:25:37.104Z,97.37
2023-01-11T02:27:12.754Z,97.70
2023-01-11T02:28:47.157Z,97.71
2023-01-11T02:30:30.205Z,97.36
2023-01-11T02:32:19.974Z,97.46
2023-01-11T02:34:25.501Z,97.46
2023-01-11T02:36:11.256Z,97.60
2023-01-11T02:38:17.815Z,97.72
2023-01-11T02:39:55.255Z,97.32
2023-01-11T02:42:03.912Z,97.65
2023-01-11T02:44:09.806Z,97.71
2023-01-11T02:45:40.662Z,97.85
2023-01-11T02:47:03.521Z,97.47
2023-01-11T02:48:56.732Z,97.88
2023-01-11T02:50:32.752Z,98.16
2023-01-11T02:51:54.748Z,97.79
2023-01-11T02:53:22.100Z,98.19
2023-01-11T02:54:25.689Z,97.96
2023-01-11T02:55:43.701Z,97.96
2023-01-11T02:56:54.463Z,97.83
2023-01-11T02:58:05.296Z,98.29
2023-01-11T02:59:23.362Z,98.25
2023-01-11T03:00:31.860Z,98.27
2023-01-11T03:01:57.568Z,97.90
2023-01-11T03:03:22.181Z,98.38
2023-01-11T03:04:37.534Z,97.84
2023-01-11T03:06:13.543Z,97.95
2023-01-11T03:07:59.898Z,97.79
2023-01-11T03:09:47.655Z,97.98
2023-01-11T03:11:13.863Z,98.14
2023-01-11T03:12:52.258Z,98.23
2023-01-11T03:14:35.649Z,98.03
2023-01-11T03:16:21.862Z,98.30
2023-01-11T03:18:00.013Z,98.45
2023-01-11T03:19:12.596Z,98.57
2023-01-11T03:20:33.347Z,98.47
2023-01-11T03:22:26.412Z,98.38
2023-01-11T03:24:04.572Z,98.37
2023-01-11T03:26:16.213Z,98.82
2023-01-11T03:27:53.947Z,98.52
2023-01-11T03:29:14.353Z,98.87
2023-01-11T03:30:44.506Z,98.65
2023-01-11T03:32:04.397Z,98.50
2023-01-11T03:33:29.200Z,98.51
2023-01-11T03:35:13.955Z,98.42
2023-01-11T03:36:41.628Z,98.34
2023-01-11T03:38:16.883Z,98.39
2023-01-11T03:40:07.196Z,98.78
2023-01-11T03:41:33.295Z,98.84
2023-01-11T03:43:18.136Z,98.90
2023-01-11T03:44:27.260Z,99.07
2023-01-11T03:45:58.792Z,99.45
2023-01-11T03:47:15.978Z,99.28
2023-01-11T03:49:24.170Z,99.45
2023-01-11T03:50:48.843Z,99.25
2023-01-11T03:52:03.222Z,99.60
2023-01-11T03:53:23.273Z,99.30
2023-01-11T03:54:34.318Z,99.21
2023-01-11T03:55:56.695Z,99.15
2023-01-11T03:57:35.755Z,99.44
2023-01-11T03:58:49.203Z,99.08
2023-01-11T03:59:53.878Z,99.19
2023-01-11T04:01:01.228Z,99.19
2023-01-11T04:59:04.476Z,100.00
2023-01-11T05:00:19.907Z,100.00
2023-01-11T05:01:34.265Z,100.00
2023-01-11T05:02:42.686Z,100.00
2023-01-11T05:03:50.132Z,100.00
2023-01-11T05:04:58.545Z,100.00
2023-01-11T05:06:16.467Z,100.00
2023-01-11T05:07:26.502Z,100.00
2023-01-11T05:08:32.566Z,100.00
2023-01-11T05:09:37.132Z,100.00
2023-01-11T05:11:02.794Z,100.00
2023-01-11T05:12:18.502Z,100.00
2023-01-11T05:13:42.131Z,100.00
2023-01-11T05:14:49.104Z,100.00
2023-01-11T05:15:55.149Z,100.00
2023-01-11T05:16:59.615Z,100.00
2023-01-11T05:18:08.015Z,100.00
2023-01-11T05:19:30.549Z,100.00
2023-01-11T05:20:39.755Z,100.00
2023-01-11T05:21:44.648Z,100.00
2023-01-11T05:22:51.448Z,100.00
2023-01-11T05:23:58.173Z,100.00
2023-01-11T05:25:01.951Z,100.00
2023-01-11T05:26:14.306Z,99.87
2023-01-11T05:27:18.071Z,99.88
2023-01-11T05:28:21.896Z,100.00
2023-01-11T05:29:25.599Z,99.92
2023-01-11T05:30:29.158Z,100.00
2023-01-11T05:31:35.529Z,99.92
2023-01-11T05:32:39.654Z,100.00
2023-01-11T05:33:44.419Z,99.92
2023-01-11T05:34:48.249Z,100.00
2023-01-11T05:36:19.607Z,100.00
2023-01-11T05:37:23.488Z,99.84
2023-01-11T05:38:32.626Z,100.00
2023-01-11T05:39:44.681Z,100.00
2023-01-11T05:41:02.606Z,100.00
2023-01-11T05:42:17.160Z,100.00
2023-01-11T05:44:02.018Z,99.94
2023-01-11T05:45:33.532Z,100.00
2023-01-11T05:46:47.731Z,100.00
2023-01-11T05:47:54.227Z,100.00
2023-01-11T05:49:20.704Z,100.00
2023-01-11T05:50:28.801Z,100.00
2023-01-11T05:51:38.600Z,100.00
2023-01-11T05:52:47.461Z,100.00
2023-01-11T05:54:03.636Z,100.00
2023-01-11T05:55:39.862Z,100.00
2023-01-11T05:56:50.393Z,100.00
2023-01-11T05:57:57.746Z,100.00
2023-01-11T05:59:21.693Z,100.00
2023-01-11T06:00:29.658Z,100.00
2023-01-11T06:01:39.723Z,100.00
2023-01-11T06:02:45.670Z,100.00
2023-01-11T06:03:54.198Z,100.00
2023-01-11T06:04:58.912Z,100.00
2023-01-11T06:06:23.800Z,100.00
2023-01-11T06:07:30.377Z,100.00
2023-01-11T06:08:39.369Z,100.00
2023-01-11T06:09:46.572Z,100.00
2023-01-11T06:10:59.343Z,100.00
2023-01-11T06:12:25.130Z,100.00
2023-01-11T06:13:34.165Z,100.00
2023-01-11T06:14:49.099Z,100.00
2023-01-11T06:16:02.944Z,100.00
2023-01-11T06:17:29.242Z,100.00
2023-01-11T06:18:41.808Z,100.00
2023-01-11T06:19:48.006Z,100.00
2023-01-11T06:20:58.767Z,100.00
2023-01-11T06:22:17.937Z,100.00
2023-01-11T06:23:27.362Z,100.00
2023-01-11T06:24:33.832Z,100.00
2023-01-11T06:26:00.167Z,100.00
2023-01-11T06:27:05.236Z,100.00
2023-01-11T06:28:26.766Z,100.00
2023-01-11T06:29:32.968Z,100.00
2023-01-11T06:30:58.092Z,100.00
2023-01-11T06:32:21.147Z,100.00
2023-01-11T06:33:27.946Z,100.00
2023-01-11T06:34:33.585Z,100.00
2023-01-11T06:35:46.345Z,100.00
2023-01-11T06:36:53.571Z,100.00
2023-01-11T06:37:57.677Z,100.00
2023-01-11T06:39:25.640Z,100.00
2023-01-11T06:40:35.896Z,100.00
2023-01-11T06:41:39.925Z,100.00
2023-01-11T06:42:49.051Z,100.00
2023-01-11T06:43:59.092Z,100.00
2023-01-11T06:46:29.143Z,100.00
2023-01-11T06:47:33.031Z,100.00
2023-01-11T06:48:41.059Z,100.00
2023-01-11T06:50:18.639Z,100.00
2023-01-11T06:51:23.361Z,100.00
2023-01-11T06:52:35.342Z,100.00
2023-01-11T06:53:46.670Z,100.00
2023-01-11T06:54:56.649Z,100.00
2023-01-11T06:56:20.072Z,100.00
2023-01-11T06:57:27.812Z,100.00
2023-01-11T06:58:33.515Z,100.00
2023-01-11T06:59:46.603Z,100.00
2023-01-11T07:00:54.582Z,100.00
2023-01-11T07:02:03.288Z,100.00
2023-01-11T07:03:20.786Z,100.00
2023-01-11T07:04:25.147Z,100.00
2023-01-11T07:05:34.702Z,100.00
2023-01-11T07:06:38.985Z,100.00
2023-01-11T07:07:46.496Z,100.00
2023-01-11T07:08:53.070Z,100.00
2023-01-11T07:09:57.918Z,100.00
2023-01-11T07:11:17.221Z,100.00
2023-01-11T07:12:22.077Z,100.00
2023-01-11T07:13:26.582Z,100.00
2023-01-11T07:14:39.312Z,100.00
2023-01-11T07:15:51.258Z,100.00
2023-01-11T07:16:56.466Z,100.00
2023-01-11T07:18:01.116Z,100.00
2023-01-11T07:19:15.871Z,100.00
2023-01-11T07:20:24.542Z,100.00
2023-01-11T07:21:28.662Z,100.00
2023-01-11T07:22:37.482Z,100.00
2023-01-11T07:23:41.491Z,100.00
2023-01-11T07:24:47.033Z,100.00
2023-01-11T07:26:16.808Z,100.00
2023-01-11T07:27:21.022Z,100.00
2023-01-11T07:28:28.613Z,100.00
2023-01-11T07:29:38.836Z,100.00
2023-01-11T07:31:02.458Z,100.00
2023-01-11T07:32:22.410Z,100.00
2023-01-11T07:33:32.352Z,100.00
2023-01-11T07:34:37.371Z,100.00
2023-01-11T07:35:58.602Z,100.00
2023-01-11T07:37:04.809Z,100.00
2023-01-11T07:38:39.193Z,100.00
2023-01-11T07:39:49.987Z,100.00
2023-01-11T07:40:56.735Z,100.00
2023-01-11T07:42:26.985Z,100.00
2023-01-11T07:43:44.500Z,100.00
2023-01-11T07:44:53.161Z,100.00
2023-01-11T07:45:59.617Z,100.00
2023-01-11T07:47:17.375Z,100.00
2023-01-11T07:48:27.423Z,100.00
2023-01-11T07:49:45.277Z,100.00
2023-01-11T07:50:52.869Z,100.00
2023-01-11T07:52:03.085Z,99.92
2023-01-11T07:53:35.896Z,100.00
2023-01-11T07:55:04.432Z,99.74
2023-01-11T07:56:18.093Z,99.83
2023-01-11T07:57:25.351Z,99.36
2023-01-11T07:58:29.797Z,99.34
2023-01-11T07:59:37.252Z,98.80
2023-01-11T08:00:48.671Z,98.03
2023-01-11T08:01:55.265Z,97.79
2023-01-11T08:03:03.291Z,97.11
2023-01-11T08:04:37.119Z,96.37
2023-01-11T08:05:50.219Z,96.87
2023-01-11T08:07:11.991Z,95.71
2023-01-11T08:08:16.988Z,95.87
2023-01-11T08:09:22.100Z,96.03
2023-01-11T08:10:29.654Z,96.15
2023-01-11T08:12:22.538Z,95.73
2023-01-11T08:13:45.728Z,95.22
2023-01-11T08:14:55.658Z,94.56
2023-01-11T08:17:41.556Z,93.97
2023-01-11T08:18:55.305Z,93.96
2023-01-11T08:20:14.394Z,94.03
2023-01-11T08:21:26.053Z,93.84
2023-01-11T08:22:34.852Z,94.16
2023-01-11T08:23:43.193Z,94.29
2023-01-11T08:24:51.563Z,94.19
2023-01-11T08:26:19.666Z,93.71
2023-01-11T08:27:25.742Z,93.25
2023-01-11T08:28:33.391Z,93.15
2023-01-11T08:29:40.480Z,92.64
2023-01-11T08:30:48.943Z,92.26
2023-01-11T08:31:58.113Z,92.03
2023-01-11T08:33:18.778Z,92.08
2023-01-11T08:34:45.181Z,91.29
2023-01-11T08:35:52.109Z,91.59
2023-01-11T08:37:03.874Z,91.39
2023-01-11T08:38:17.478Z,91.18
2023-01-11T08:39:25.715Z,90.95
2023-01-11T08:40:30.254Z,90.99
2023-01-11T08:41:44.770Z,91.01
2023-01-11T08:42:59.316Z,90.91
2023-01-11T08:44:11.747Z,90.93
2023-01-11T08:45:27.752Z,91.51
2023-01-11T08:46:52.439Z,91.05
2023-01-11T08:48:25.116Z,91.08
2023-01-11T08:49:41.125Z,90.98
2023-01-11T08:51:21.269Z,90.44
2023-01-11T08:52:37.831Z,90.81
2023-01-11T08:53:44.278Z,91.09
2023-01-11T08:54:48.415Z,91.44
2023-01-11T08:55:54.575Z,91.34
2023-01-11T08:57:18.477Z,90.94
2023-01-11T08:58:23.320Z,90.57
2023-01-11T08:59:28.021Z,90.87
2023-01-11T09:00:35.790Z,90.75
2023-01-11T09:01:43.943Z,90.49
2023-01-11T09:02:55.602Z,89.94
2023-01-11T09:04:01.442Z,90.52
2023-01-11T09:05:20.072Z,89.71
2023-01-11T09:06:24.793Z,89.83
2023-01-11T09:07:35.124Z,90.03
2023-01-11T09:08:39.611Z,90.15
2023-01-11T09:09:52.571Z,90.27
2023-01-11T09:11:02.056Z,90.29
2023-01-11T09:12:18.443Z,91.02
2023-01-11T09:13:28.551Z,90.86
2023-01-11T09:14:38.149Z,90.63
2023-01-11T09:15:48.705Z,91.17
2023-01-11T09:17:03.658Z,90.88
2023-01-11T09:18:14.226Z,91.12
2023-01-11T09:19:18.828Z,90.95
2023-01-11T09:20:41.222Z,90.61
2023-01-11T09:21:47.860Z,89.94
2023-01-11T09:22:53.435Z,89.84
2023-01-11T09:23:57.374Z,89.54
2023-01-11T09:25:26.233Z,89.05
2023-01-11T09:26:31.429Z,88.57
2023-01-11T09:27:35.276Z,88.90
2023-01-11T09:28:43.412Z,89.29
2023-01-11T09:29:50.597Z,88.96
2023-01-11T09:30:54.893Z,88.87
2023-01-11T09:31:59.723Z,89.40
2023-01-11T09:33:05.463Z,89.28
2023-01-11T09:34:13.277Z,89.90
2023-01-11T09:35:19.038Z,90.17
2023-01-11T09:36:28.011Z,90.26
2023-01-11T09:37:32.767Z,90.52
2023-01-11T09:38:39.495Z,90.37
2023-01-11T09:39:44.725Z,91.03
2023-01-11T09:41:35.629Z,91.31
2023-01-11T09:42:43.839Z,91.84
2023-01-11T09:44:20.010Z,92.01
2023-01-11T09:45:31.795Z,92.33
2023-01-11T09:46:43.500Z,92.47
2023-01-11T09:48:17.583Z,92.18
2023-01-11T09:49:42.055Z,92.47
2023-01-11T09:50:56.625Z,91.86
2023-01-11T09:52:38.905Z,91.57
2023-01-11T09:53:55.943Z,91.12
2023-01-11T09:55:06.772Z,91.03
2023-01-11T09:56:25.085Z,91.75
2023-01-11T09:58:07.597Z,91.83
2023-01-11T09:59:41.803Z,91.50
2023-01-11T10:01:39.354Z,91.50
2023-01-11T10:03:00.437Z,91.53
2023-01-11T10:04:57.171Z,91.29
2023-01-11T10:06:53.589Z,91.57
2023-01-11T10:18:23.558Z,90.44
2023-01-11T10:18:31.139Z,88.94
2023-01-11T10:19:43.644Z,87.08
2023-01-11T10:21:02.224Z,87.10
2023-01-11T10:22:34.786Z,86.11
2023-01-11T10:24:16.772Z,84.69
2023-01-11T10:25:46.665Z,83.85
2023-01-11T10:26:58.244Z,83.57
2023-01-11T10:28:44.199Z,82.45
2023-01-11T10:30:23.560Z,82.36
2023-01-11T10:32:09.146Z,83.03
2023-01-11T10:34:01.119Z,82.13
2023-01-11T10:36:15.031Z,81.70
2023-01-11T10:37:49.803Z,82.36
2023-01-11T10:39:43.819Z,81.77
2023-01-11T10:41:21.575Z,81.40
2023-01-11T10:42:51.046Z,80.52
2023-01-11T10:44:32.626Z,80.19
2023-01-11T10:46:12.186Z,80.49
2023-01-11T10:47:43.997Z,78.38
2023-01-11T10:49:18.263Z,78.05
2023-01-11T10:51:04.895Z,77.41
2023-01-11T10:52:34.920Z,77.88
2023-01-11T10:54:14.908Z,78.12
2023-01-11T10:56:25.651Z,78.46
2023-01-11T10:58:03.422Z,78.87
2023-01-11T10:59:54.889Z,79.87
2023-01-11T11:01:50.520Z,79.34
2023-01-11T11:03:39.885Z,78.99
2023-01-11T11:05:35.986Z,78.01
2023-01-11T11:07:33.081Z,78.09
2023-01-11T11:09:05.655Z,77.45
2023-01-11T11:11:00.547Z,77.65
2023-01-11T11:12:37.772Z,77.56
2023-01-11T11:14:26.174Z,78.05
2023-01-11T11:16:10.010Z,78.24
2023-01-11T11:17:37.026Z,77.98
2023-01-11T11:18:48.982Z,78.01
2023-01-11T11:19:53.862Z,77.34
2023-01-11T11:21:24.802Z,77.29
2023-01-11T11:22:28.951Z,77.49
2023-01-11T11:23:36.693Z,77.16
2023-01-11T11:25:27.948Z,76.59
2023-01-11T11:26:49.965Z,76.73
2023-01-11T11:28:09.996Z,76.92
2023-01-11T11:29:33.407Z,76.88
2023-01-11T11:30:43.606Z,76.51
2023-01-11T11:31:53.639Z,76.97
2023-01-11T11:33:17.508Z,77.06
2023-01-11T11:34:28.568Z,76.46
2023-01-11T11:35:46.655Z,76.55
2023-01-11T11:37:05.671Z,76.39
2023-01-11T11:38:39.597Z,76.71
2023-01-11T11:40:00.880Z,77.16
2023-01-11T11:41:20.846Z,77.00
2023-01-11T11:42:26.817Z,76.50
2023-01-11T11:43:53.346Z,76.35
2023-01-11T11:45:14.811Z,76.15
2023-01-11T11:46:32.840Z,76.02
2023-01-11T11:47:42.530Z,76.07
2023-01-11T11:49:18.537Z,75.45
2023-01-11T11:50:43.717Z,75.45
2023-01-11T11:51:55.416Z,76.51
2023-01-11T11:53:08.116Z,76.09
2023-01-11T11:54:37.057Z,76.39
2023-01-11T11:55:42.827Z,76.31
2023-01-11T11:57:17.616Z,75.23
2023-01-11T11:58:31.233Z,75.24
2023-01-11T11:59:48.117Z,75.21
2023-01-11T12:01:07.519Z,75.55
2023-01-11T12:02:34.866Z,75.16
2023-01-11T12:03:47.386Z,74.80
2023-01-11T12:05:23.033Z,74.20
2023-01-11T12:06:42.980Z,72.73
2023-01-11T12:07:55.841Z,72.62
2023-01-11T12:09:30.302Z,73.46
2023-01-11T12:10:50.087Z,73.41
2023-01-11T12:12:00.524Z,73.87
2023-01-11T12:13:40.214Z,73.20
2023-01-11T12:15:25.484Z,73.31
2023-01-11T12:18:43.593Z,72.05
2023-01-11T12:19:58.595Z,72.14
2023-01-11T12:21:33.431Z,71.99
2023-01-11T12:22:48.022Z,71.20
2023-01-11T12:24:28.187Z,71.77
2023-01-11T12:26:01.521Z,71.99
2023-01-11T12:27:55.660Z,71.44
2023-01-11T12:29:27.855Z,71.53
2023-01-11T12:31:19.645Z,71.26
2023-01-11T12:33:40.273Z,71.43
2023-01-11T12:35:18.375Z,70.94
2023-01-11T12:36:43.080Z,71.14
2023-01-11T12:38:51.782Z,71.18
2023-01-11T12:40:38.055Z,71.11
2023-01-11T12:42:11.822Z,71.75
2023-01-11T12:44:13.136Z,70.67
2023-01-11T12:45:35.035Z,71.11
2023-01-11T12:47:23.585Z,70.52
2023-01-11T12:49:18.701Z,70.98
2023-01-11T12:50:32.091Z,71.39
2023-01-11T12:52:17.767Z,70.68
2023-01-11T12:54:00.238Z,70.94
2023-01-11T12:55:30.090Z,70.92
2023-01-11T12:57:03.783Z,70.86
2023-01-11T12:58:32.559Z,70.92
2023-01-11T13:00:29.407Z,70.47
2023-01-11T13:02:09.499Z,70.69
2023-01-11T13:04:00.640Z,70.86
2023-01-11T13:05:38.611Z,71.25
2023-01-11T13:07:28.565Z,71.34
2023-01-11T13:11:14.322Z,71.07
2023-01-11T13:13:11.511Z,71.21
2023-01-11T13:14:55.837Z,71.08
2023-01-11T13:16:36.114Z,71.24
2023-01-11T13:18:19.643Z,71.37
2023-01-11T13:19:55.943Z,71.84
2023-01-11T13:21:55.850Z,71.32
2023-01-11T13:23:20.836Z,71.45
2023-01-11T13:24:31.905Z,70.91
2023-01-11T13:25:43.017Z,70.63
2023-01-11T13:26:50.742Z,70.68
2023-01-11T13:27:59.986Z,70.35
2023-01-11T13:29:23.575Z,70.37
2023-01-11T13:30:33.340Z,70.19
2023-01-11T13:31:38.854Z,70.38
2023-01-11T13:32:53.054Z,70.46
2023-01-11T13:35:08.735Z,69.60
2023-01-11T13:36:39.800Z,70.00
2023-01-11T13:38:55.707Z,69.78
2023-01-11T13:40:34.814Z,69.66
2023-01-11T13:41:54.065Z,70.22
2023-01-11T13:44:13.941Z,69.96
2023-01-11T13:46:07.004Z,70.01
2023-01-11T13:47:38.961Z,70.11
2023-01-11T13:49:18.553Z,70.17
2023-01-11T13:50:43.568Z,70.34
2023-01-11T13:52:19.717Z,70.67
2023-01-11T13:53:55.390Z,70.48
2023-01-11T13:55:37.958Z,70.66
2023-01-11T13:57:09.619Z,70.83
2023-01-11T13:58:38.801Z,70.71
2023-01-11T14:00:39.454Z,70.49
2023-01-11T14:02:30.778Z,70.75
2023-01-11T14:03:49.431Z,70.71
2023-01-11T14:06:37.323Z,71.17
2023-01-11T14:08:02.240Z,71.31
2023-01-11T14:09:57.665Z,70.93
2023-01-11T14:11:58.801Z,71.26
2023-01-11T14:13:56.383Z,71.25
2023-01-11T14:15:39.763Z,71.14
2023-01-11T14:17:09.875Z,71.44
2023-01-11T14:19:16.892Z,71.64
2023-01-11T14:20:42.335Z,71.89
2023-01-11T14:23:11.815Z,71.93
2023-01-11T14:24:33.165Z,71.94
2023-01-11T14:26:14.881Z,71.76
2023-01-11T14:27:45.590Z,71.83
2023-01-11T14:29:26.979Z,71.85
2023-01-11T14:31:14.766Z,72.83
2023-01-11T14:33:50.909Z,72.61
2023-01-11T14:35:38.526Z,72.67
2023-01-11T14:37:49.973Z,72.78
2023-01-11T14:39:47.699Z,73.01
2023-01-11T14:41:22.417Z,73.43
2023-01-11T14:43:08.900Z,73.23
2023-01-11T14:45:25.126Z,73.36
2023-01-11T14:47:07.001Z,73.38
2023-01-11T14:49:22.726Z,73.85
2023-01-11T14:51:23.812Z,73.82
2023-01-11T14:52:54.556Z,73.81
2023-01-11T14:56:45.986Z,74.46
2023-01-11T14:58:03.567Z,74.25
2023-01-11T14:59:47.564Z,74.55
2023-01-11T15:01:19.840Z,74.55
2023-01-11T15:02:30.396Z,74.63
2023-01-11T15:03:57.415Z,74.54
2023-01-11T15:05:24.836Z,74.65
2023-01-11T15:07:15.333Z,75.12
2023-01-11T15:08:52.892Z,74.91
2023-01-11T15:10:37.021Z,75.35
2023-01-11T15:12:35.873Z,75.64
2023-01-11T15:13:53.348Z,75.54
2023-01-11T15:17:05.668Z,75.46
2023-01-11T15:17:52.571Z,75.82
2023-01-11T15:19:12.547Z,75.92
2023-01-11T15:20:22.751Z,75.87
2023-01-11T15:21:28.261Z,76.19
2023-01-11T15:22:34.497Z,76.13
2023-01-11T15:23:50.033Z,76.27
2023-01-11T15:25:25.917Z,76.80
2023-01-11T15:26:30.646Z,76.60
2023-01-11T15:27:38.828Z,76.83
2023-01-11T15:29:07.219Z,77.13
2023-01-11T15:30:37.337Z,77.42
2023-01-11T15:32:19.399Z,77.82
2023-01-11T15:33:53.237Z,77.89
2023-01-11T15:35:32.440Z,78.20
2023-01-11T15:37:22.116Z,78.22
2023-01-11T15:40:50.827Z,79.00
2023-01-11T15:42:36.692Z,78.81
2023-01-11T15:44:01.889Z,79.28
2023-01-11T15:47:34.490Z,80.23
2023-01-11T15:49:24.407Z,80.19
2023-01-11T15:50:54.351Z,80.26
2023-01-11T15:53:18.136Z,80.77
2023-01-11T15:55:23.911Z,81.45
2023-01-11T15:57:40.366Z,81.90
2023-01-11T15:59:21.234Z,81.67
2023-01-11T16:00:59.693Z,81.91
2023-01-11T16:02:18.613Z,82.17
2023-01-11T16:04:33.695Z,82.56
2023-01-11T16:06:00.714Z,82.81
2023-01-11T16:08:23.052Z,83.36
2023-01-11T16:10:02.566Z,83.43
2023-01-11T16:11:59.832Z,83.50
2023-01-11T16:13:41.923Z,83.58
2023-01-11T16:15:37.009Z,83.65
2023-01-11T16:16:57.038Z,83.80
2023-01-11T16:18:23.840Z,83.98
2023-01-11T16:20:00.813Z,84.29
2023-01-11T16:21:42.594Z,84.71
2023-01-11T16:23:03.472Z,84.84
2023-01-11T16:24:33.125Z,84.86
2023-01-11T16:25:47.131Z,85.53
2023-01-11T16:27:17.957Z,85.26
2023-01-11T16:28:29.088Z,85.46
2023-01-11T16:30:04.718Z,85.92
2023-01-11T16:34:17.904Z,86.58
2023-01-11T16:35:37.766Z,86.98
2023-01-11T16:36:57.950Z,87.24
2023-01-11T16:38:33.194Z,87.11
2023-01-11T16:40:17.252Z,87.32
2023-01-11T16:44:43.659Z,88.01
2023-01-11T16:46:04.799Z,88.34
2023-01-11T16:47:44.031Z,88.55
2023-01-11T16:49:26.650Z,88.48
2023-01-11T16:50:41.326Z,88.23
2023-01-11T16:51:57.915Z,88.42
2023-01-11T16:53:18.082Z,88.41
2023-01-11T16:54:35.845Z,88.29
2023-01-11T16:56:12.356Z,87.96
2023-01-11T16:57:56.192Z,88.15
2023-01-11T16:59:39.820Z,87.94
2023-01-11T17:01:24.907Z,88.45
2023-01-11T17:02:49.506Z,88.05
2023-01-11T17:04:32.251Z,88.09
2023-01-11T17:05:56.612Z,87.97
2023-01-11T17:07:38.316Z,87.95
2023-01-11T17:10:40.475Z,88.15
2023-01-11T17:11:56.707Z,88.11
2023-01-11T17:13:53.447Z,88.11
2023-01-11T17:15:53.773Z,88.48
2023-01-11T17:17:11.233Z,88.34
2023-01-11T17:18:16.015Z,88.10
2023-01-11T17:19:34.544Z,88.31
2023-01-11T17:20:38.795Z,88.44
2023-01-11T17:21:51.111Z,88.70
2023-01-11T17:22:56.869Z,88.56
2023-01-11T17:24:05.946Z,88.67
2023-01-11T17:25:37.245Z,88.34
2023-01-11T17:26:52.046Z,88.66
2023-01-11T17:28:16.867Z,88.71
2023-01-11T17:29:41.121Z,88.40
2023-01-11T17:30:55.826Z,88.21
2023-01-11T17:32:33.718Z,88.21
2023-01-11T17:33:56.910Z,88.50
2023-01-11T17:35:32.007Z,88.75
2023-01-11T17:36:48.399Z,88.76
2023-01-11T17:38:22.994Z,88.68
2023-01-11T17:39:39.565Z,88.64
2023-01-11T17:41:34.535Z,88.87
2023-01-11T17:42:59.230Z,88.91
2023-01-11T17:44:54.185Z,88.91
2023-01-11T17:46:30.528Z,89.19
2023-01-11T17:47:52.058Z,89.27
2023-01-11T17:50:59.753Z,89.38
2023-01-11T17:52:41.035Z,89.54
2023-01-11T17:54:01.817Z,89.66
2023-01-11T17:55:34.491Z,90.00
2023-01-11T17:58:45.041Z,89.97
2023-01-11T18:00:37.709Z,90.19
2023-01-11T18:02:22.768Z,90.05
2023-01-11T18:03:44.885Z,90.21
2023-01-11T18:06:56.956Z,90.44
2023-01-11T18:08:16.231Z,90.38
2023-01-11T18:09:37.477Z,90.43
2023-01-11T18:11:00.003Z,90.51
2023-01-11T18:12:45.796Z,90.59
2023-01-11T18:14:26.743Z,90.61
2023-01-11T18:15:43.908Z,90.52
2023-01-11T18:17:52.653Z,90.45
2023-01-11T18:19:38.258Z,90.74
2023-01-11T18:20:51.133Z,91.16
2023-01-11T18:21:58.097Z,91.30
2023-01-11T18:23:23.501Z,91.12
2023-01-11T18:24:56.521Z,91.07
2023-01-11T18:26:34.167Z,91.04
2023-01-11T18:27:54.173Z,91.10
2023-01-11T18:31:02.141Z,91.08
2023-01-11T18:32:39.741Z,90.75
2023-01-11T18:33:45.405Z,90.62
2023-01-11T18:34:54.361Z,90.90
2023-01-11T18:36:21.791Z,91.15
2023-01-11T18:37:26.365Z,91.07
2023-01-11T18:38:36.025Z,90.83
2023-01-11T18:39:40.891Z,90.85
2023-01-11T18:40:48.679Z,90.67
2023-01-11T18:42:11.492Z,90.85
2023-01-11T18:43:18.111Z,91.37
2023-01-11T18:44:22.461Z,91.89
2023-01-11T18:45:26.685Z,92.08
2023-01-11T18:46:31.260Z,91.88
2023-01-11T18:47:35.772Z,91.34
2023-01-11T18:48:43.671Z,91.20
2023-01-11T18:49:53.088Z,91.53
2023-01-11T18:50:59.040Z,91.61
2023-01-11T18:52:03.505Z,91.26
2023-01-11T18:53:15.390Z,91.40
2023-01-11T18:54:20.584Z,91.31
2023-01-11T18:55:25.307Z,91.51
2023-01-11T18:56:34.283Z,91.51
2023-01-11T18:57:42.666Z,91.30
2023-01-11T18:58:47.306Z,91.55
2023-01-11T18:59:56.856Z,91.35
2023-01-11T19:01:07.706Z,91.52
2023-01-11T19:02:29.448Z,91.51
2023-01-11T19:03:34.057Z,91.52
2023-01-11T19:04:39.768Z,91.15
2023-01-11T19:05:45.349Z,91.31
2023-01-11T19:06:52.494Z,91.35
2023-01-11T19:08:11.955Z,91.21